Time;durP1;ratioP1;P1;durP2;ratioP2;P2;SDS_P1;SDS_P2;PMS_P1;PMS_P2;Temp;Humidity;BMP_temperature;BMP_pressure;BME280_temperature;BME280_humidity;BME280_pressure;Samples;Min_cycle;Max_cycle;Signal;HPM_P1;HPM_P2
2023/08/24 00:00:27;;;;;;;9.07;3.53;;;16.30;78.10;;;;;;5065274;28;20185;-67
2023/08/24 00:02:55;;;;;;;14.37;4.27;;;16.10;78.80;;;;;;5067705;28;20257;-67
2023/08/24 00:05:22;;;;;;;7.03;3.80;;;16.00;78.90;;;;;;5067513;28;20274;-71
2023/08/24 00:07:51;;;;;;;13.83;4.23;;;16.00;79.40;;;;;;5067230;28;20180;-67
2023/08/24 00:10:18;;;;;;;11.47;3.50;;;15.90;79.20;;;;;;5064396;28;20281;-70
2023/08/24 00:12:45;;;;;;;7.17;2.87;;;16.00;78.80;;;;;;5068902;28;20208;-70
2023/08/24 00:15:13;;;;;;;16.73;4.13;;;16.10;78.80;;;;;;5065209;28;20197;-65
2023/08/24 00:17:40;;;;;;;12.43;3.23;;;16.50;77.60;;;;;;5070412;28;20199;-71
2023/08/24 00:20:10;;;;;;;9.60;3.87;;;16.40;76.90;;;;;;5066296;28;20172;-67
2023/08/24 00:22:39;;;;;;;7.37;3.13;;;16.40;76.50;;;;;;5067377;28;20177;-71
2023/08/24 00:25:10;;;;;;;11.17;2.80;;;16.50;76.20;;;;;;5066483;28;20184;-68
2023/08/24 00:27:37;;;;;;;17.53;3.20;;;16.50;75.60;;;;;;5070030;28;20218;-70
2023/08/24 00:30:06;;;;;;;5.30;2.53;;;16.50;75.60;;;;;;5070804;28;20205;-72
2023/08/24 00:32:34;;;;;;;11.53;2.87;;;16.40;74.80;;;;;;5067469;28;20223;-70
2023/08/24 00:35:06;;;;;;;13.83;2.53;;;16.40;75.20;;;;;;5073164;28;20184;-68
2023/08/24 00:37:34;;;;;;;9.53;2.43;;;16.50;75.20;;;;;;5066553;28;20211;-72
2023/08/24 00:40:04;;;;;;;6.73;2.60;;;16.50;74.00;;;;;;5072019;28;20658;-70
2023/08/24 00:42:31;;;;;;;8.13;2.10;;;16.50;73.60;;;;;;5071834;28;20385;-70
2023/08/24 00:44:59;;;;;;;6.20;2.40;;;16.60;73.60;;;;;;5073651;28;20182;-67
2023/08/24 00:47:27;;;;;;;4.37;2.00;;;16.80;73.30;;;;;;5073890;28;20191;-67
2023/08/24 00:49:57;;;;;;;9.17;2.63;;;17.00;72.60;;;;;;5074598;28;20177;-70
2023/08/24 00:52:28;;;;;;;4.70;2.10;;;17.10;70.90;;;;;;5076191;28;20206;-69
2023/08/24 00:54:56;;;;;;;6.03;1.83;;;17.20;70.80;;;;;;5073279;28;20179;-69
2023/08/24 00:57:23;;;;;;;6.53;2.33;;;17.50;68.70;;;;;;5078200;28;20236;-69
2023/08/24 00:59:51;;;;;;;8.83;2.37;;;17.60;69.40;;;;;;5074731;28;20534;-73
2023/08/24 01:02:18;;;;;;;5.77;2.07;;;17.50;68.00;;;;;;5074422;28;20250;-73
2023/08/24 01:04:48;;;;;;;8.80;2.40;;;17.60;68.90;;;;;;5075326;28;20174;-72
2023/08/24 01:07:17;;;;;;;5.50;2.03;;;17.60;69.70;;;;;;5072149;28;20183;-74
2023/08/24 01:09:45;;;;;;;10.80;2.40;;;17.60;69.80;;;;;;5070425;28;20194;-71
2023/08/24 01:12:41;;;;;;;12.10;2.80;;;17.50;69.80;;;;;;5072438;28;20251;-68
2023/08/24 01:15:26;;;;;;;9.03;1.97;;;17.30;69.60;;;;;;5068239;28;20187;-73
2023/08/24 01:17:56;;;;;;;9.10;2.37;;;17.30;70.20;;;;;;5073142;28;20273;-71
2023/08/24 01:20:23;;;;;;;10.83;2.83;;;17.40;69.20;;;;;;5073368;28;20561;-70
2023/08/24 01:23:09;;;;;;;8.00;2.13;;;17.40;69.30;;;;;;5072057;28;20176;-72
2023/08/24 01:25:59;;;;;;;5.07;2.43;;;17.50;69.00;;;;;;5072743;28;20622;-73
2023/08/24 01:28:26;;;;;;;7.17;2.00;;;17.40;68.10;;;;;;5071314;28;20201;-72
2023/08/24 01:30:54;;;;;;;10.87;2.53;;;17.50;66.50;;;;;;5073240;28;20308;-67
2023/08/24 01:33:22;;;;;;;8.03;1.90;;;17.40;66.90;;;;;;5072969;28;20229;-68
2023/08/24 01:35:50;;;;;;;6.27;2.13;;;17.50;67.10;;;;;;5072339;28;20188;-74
2023/08/24 01:38:17;;;;;;;8.43;1.93;;;17.80;67.80;;;;;;5073625;28;20700;-69
2023/08/24 01:41:00;;;;;;;8.73;1.97;;;17.90;67.70;;;;;;5068155;28;20204;-77
2023/08/24 01:43:33;;;;;;;6.97;2.10;;;18.10;67.40;;;;;;5072554;28;20259;-67
2023/08/24 01:46:03;;;;;;;6.73;2.10;;;18.10;66.90;;;;;;5068860;28;20221;-67
2023/08/24 01:48:31;;;;;;;9.97;2.27;;;18.00;64.80;;;;;;5066387;28;20179;-67
2023/08/24 01:51:00;;;;;;;7.03;1.90;;;18.00;65.30;;;;;;5073261;28;20186;-66
2023/08/24 01:53:29;;;;;;;7.23;2.00;;;18.10;66.40;;;;;;5072138;28;20308;-67
2023/08/24 01:55:56;;;;;;;6.30;1.67;;;18.00;64.30;;;;;;5072448;28;20218;-66
2023/08/24 01:58:24;;;;;;;4.27;1.60;;;18.00;63.00;;;;;;5072821;28;20193;-66
2023/08/24 02:00:51;;;;;;;7.80;1.97;;;18.10;62.90;;;;;;5071783;28;20179;-67
2023/08/24 02:03:18;;;;;;;6.97;2.07;;;18.20;63.00;;;;;;5070399;28;20217;-68
2023/08/24 02:05:46;;;;;;;6.70;1.90;;;18.10;61.70;;;;;;5070494;28;20566;-70
2023/08/24 02:08:13;;;;;;;6.63;1.70;;;18.00;61.40;;;;;;5072939;28;20262;-68
2023/08/24 02:10:40;;;;;;;4.27;2.00;;;17.90;61.70;;;;;;5069971;28;21103;-66
2023/08/24 02:13:08;;;;;;;5.63;1.50;;;18.00;62.10;;;;;;5072842;28;20350;-75
2023/08/24 02:15:35;;;;;;;4.63;1.73;;;17.90;61.50;;;;;;5072501;28;20247;-76
2023/08/24 02:18:02;;;;;;;4.33;1.40;;;18.00;61.80;;;;;;5072123;28;20266;-74
2023/08/24 02:20:30;;;;;;;5.90;2.00;;;17.90;60.20;;;;;;5073258;28;20315;-74
2023/08/24 02:22:57;;;;;;;8.70;2.33;;;17.80;61.30;;;;;;5074136;28;20181;-73
2023/08/24 02:25:25;;;;;;;6.63;2.23;;;17.80;60.90;;;;;;5075950;28;20239;-75
2023/08/24 02:27:52;;;;;;;6.33;2.17;;;17.90;61.40;;;;;;5074294;28;20274;-73
2023/08/24 02:30:19;;;;;;;5.67;1.60;;;17.90;61.70;;;;;;5071835;28;20191;-75
2023/08/24 02:32:46;;;;;;;7.23;2.07;;;17.90;61.70;;;;;;5066318;28;20236;-76
2023/08/24 02:35:14;;;;;;;9.73;1.90;;;18.00;61.40;;;;;;5072115;28;20617;-73
2023/08/24 02:37:41;;;;;;;4.67;1.90;;;18.20;62.10;;;;;;5071877;28;20218;-75
2023/08/24 02:40:09;;;;;;;7.50;2.17;;;18.30;61.70;;;;;;5068326;28;20187;-73
2023/08/24 02:42:37;;;;;;;3.07;1.80;;;18.50;59.90;;;;;;5070369;28;20183;-75
2023/08/24 02:45:04;;;;;;;2.70;1.70;;;18.80;60.00;;;;;;5070431;28;20637;-75
2023/08/24 02:47:32;;;;;;;4.13;1.73;;;18.80;59.20;;;;;;5070980;28;20195;-75
2023/08/24 02:50:00;;;;;;;4.67;1.43;;;18.60;59.10;;;;;;5071530;28;20184;-73
2023/08/24 02:52:27;;;;;;;7.47;2.13;;;18.30;59.30;;;;;;5069443;28;20563;-74
2023/08/24 02:54:54;;;;;;;7.30;1.77;;;18.20;60.90;;;;;;5070604;28;20179;-75
2023/08/24 02:57:22;;;;;;;3.43;1.80;;;18.20;60.90;;;;;;5070825;28;20733;-74
2023/08/24 02:59:49;;;;;;;5.97;1.83;;;18.10;60.60;;;;;;5069100;28;20183;-74
2023/08/24 03:02:16;;;;;;;7.23;2.13;;;18.10;60.90;;;;;;5063257;28;20287;-75
2023/08/24 03:04:44;;;;;;;11.83;1.90;;;18.00;59.90;;;;;;5068170;28;20668;-76
2023/08/24 03:07:11;;;;;;;4.43;1.50;;;18.00;60.30;;;;;;5069887;28;20218;-74
2023/08/24 03:09:39;;;;;;;5.40;1.97;;;18.00;60.80;;;;;;5067184;28;20187;-74
2023/08/24 03:12:06;;;;;;;8.33;1.70;;;18.00;60.60;;;;;;5068670;28;20195;-74
2023/08/24 03:14:34;;;;;;;8.20;1.80;;;17.80;60.80;;;;;;5066094;28;20250;-74
2023/08/24 03:17:02;;;;;;;4.70;1.80;;;17.80;61.60;;;;;;5069266;28;20180;-70
2023/08/24 03:19:29;;;;;;;6.30;1.93;;;17.80;62.00;;;;;;5070893;28;20592;-74
2023/08/24 03:21:57;;;;;;;6.83;1.80;;;17.90;61.70;;;;;;5069002;28;20191;-72
2023/08/24 03:24:24;;;;;;;9.33;2.07;;;18.00;61.60;;;;;;5066870;28;20190;-75
2023/08/24 03:26:51;;;;;;;5.10;2.00;;;17.90;61.80;;;;;;5071361;28;20193;-68
2023/08/24 03:29:19;;;;;;;5.63;1.80;;;17.90;61.00;;;;;;5070287;28;20187;-75
2023/08/24 03:31:46;;;;;;;4.17;1.53;;;17.90;60.40;;;;;;5068406;28;20245;-73
2023/08/24 03:34:13;;;;;;;3.33;1.77;;;17.80;60.20;;;;;;5068552;28;20210;-70
2023/08/24 03:36:40;;;;;;;4.60;1.80;;;17.70;60.30;;;;;;5070690;28;20183;-66
2023/08/24 03:39:08;;;;;;;7.30;1.50;;;17.70;59.50;;;;;;5070896;28;20183;-72
2023/08/24 03:41:35;;;;;;;8.10;1.83;;;17.80;59.80;;;;;;5070663;28;20553;-67
2023/08/24 03:44:02;;;;;;;4.80;1.70;;;17.80;60.60;;;;;;5069076;28;20222;-69
2023/08/24 03:46:30;;;;;;;5.83;1.63;;;17.80;60.10;;;;;;5066091;28;20183;-67
2023/08/24 03:48:57;;;;;;;6.13;1.60;;;17.80;59.20;;;;;;5070959;28;20191;-68
2023/08/24 03:51:24;;;;;;;5.47;1.70;;;17.90;58.80;;;;;;5069023;28;20235;-69
2023/08/24 03:53:52;;;;;;;6.93;1.37;;;18.10;58.90;;;;;;5065207;28;20317;-67
2023/08/24 03:56:19;;;;;;;4.03;1.50;;;18.00;58.50;;;;;;5069814;28;20195;-68
2023/08/24 03:58:46;;;;;;;5.23;2.03;;;18.20;59.90;;;;;;5065652;28;20197;-67
2023/08/24 04:01:14;;;;;;;5.77;1.80;;;18.30;58.90;;;;;;5070343;28;20280;-74
2023/08/24 04:03:41;;;;;;;3.20;1.50;;;18.60;58.40;;;;;;5064627;28;20175;-72
2023/08/24 04:06:08;;;;;;;5.70;1.40;;;18.80;56.70;;;;;;5068872;28;20184;-67
2023/08/24 04:08:36;;;;;;;3.87;1.40;;;19.80;56.10;;;;;;5071100;28;20197;-71
2023/08/24 04:11:03;;;;;;;5.30;1.47;;;20.90;52.10;;;;;;5068495;28;20589;-72
2023/08/24 04:13:31;;;;;;;4.67;1.23;;;21.50;49.30;;;;;;5067318;28;20210;-67
2023/08/24 04:15:58;;;;;;;5.07;1.27;;;21.60;48.70;;;;;;5073098;28;20171;-70
2023/08/24 04:18:25;;;;;;;3.70;1.37;;;21.70;48.00;;;;;;5073764;28;20187;-67
2023/08/24 04:20:53;;;;;;;4.17;1.23;;;22.00;46.00;;;;;;5072840;28;20175;-68
2023/08/24 04:23:26;;;;;;;3.43;1.60;;;21.80;47.50;;;;;;5073475;28;20270;-68
2023/08/24 04:25:54;;;;;;;3.83;1.23;;;22.50;45.20;;;;;;5073668;28;20185;-72
2023/08/24 04:28:23;;;;;;;5.57;1.40;;;22.70;45.60;;;;;;5073094;28;21038;-67
2023/08/24 04:30:59;;;;;;;5.23;1.23;;;22.80;44.70;;;;;;5073610;28;20183;-69
2023/08/24 04:33:27;;;;;;;3.50;1.10;;;23.00;43.70;;;;;;5074166;28;20253;-75
2023/08/24 04:35:55;;;;;;;4.57;1.30;;;22.30;44.00;;;;;;5073935;28;20254;-69
2023/08/24 04:38:22;;;;;;;3.43;1.40;;;21.70;45.70;;;;;;5073266;28;20191;-70
2023/08/24 04:40:54;;;;;;;4.37;1.23;;;21.10;47.30;;;;;;5073962;28;20218;-67
2023/08/24 04:43:23;;;;;;;3.13;1.40;;;20.30;48.40;;;;;;5071191;28;20175;-74
2023/08/24 04:45:52;;;;;;;2.30;1.20;;;20.30;48.80;;;;;;5066395;28;20241;-71
2023/08/24 04:48:20;;;;;;;3.57;1.47;;;20.00;49.50;;;;;;5068810;28;20254;-72
2023/08/24 04:50:49;;;;;;;4.83;1.33;;;20.20;49.60;;;;;;5064917;28;20282;-73
2023/08/24 04:53:18;;;;;;;6.97;1.43;;;20.40;48.40;;;;;;5068731;28;20250;-74
2023/08/24 04:55:46;;;;;;;3.40;1.40;;;20.60;48.00;;;;;;5068634;28;20262;-71
2023/08/24 04:58:13;;;;;;;4.17;1.70;;;20.30;48.60;;;;;;5068609;28;20176;-72
2023/08/24 05:00:41;;;;;;;4.87;1.87;;;20.40;49.10;;;;;;5070642;28;20193;-74
2023/08/24 05:03:09;;;;;;;4.07;1.50;;;21.10;47.60;;;;;;5071718;28;20180;-69
2023/08/24 05:05:37;;;;;;;3.47;1.40;;;20.80;48.10;;;;;;5072216;28;20262;-72
2023/08/24 05:08:09;;;;;;;3.77;1.30;;;20.40;47.80;;;;;;5073412;28;20186;-73
2023/08/24 05:10:37;;;;;;;10.50;1.70;;;20.40;48.70;;;;;;5073407;28;20249;-70
2023/08/24 05:13:05;;;;;;;8.50;1.63;;;20.30;49.80;;;;;;5070619;28;20229;-74
2023/08/24 05:15:32;;;;;;;4.37;1.30;;;20.00;51.00;;;;;;5067993;28;20198;-72
2023/08/24 05:17:59;;;;;;;9.37;1.50;;;19.90;50.70;;;;;;5069016;28;20191;-73
2023/08/24 05:20:30;;;;;;;4.53;1.30;;;20.10;51.00;;;;;;5066423;28;20188;-66
2023/08/24 05:23:00;;;;;;;5.23;1.50;;;19.90;50.20;;;;;;5070863;28;20188;-71
2023/08/24 05:25:28;;;;;;;3.43;1.40;;;20.10;50.70;;;;;;5067640;28;20176;-73
2023/08/24 05:27:55;;;;;;;4.40;1.57;;;20.20;50.90;;;;;;5072249;28;20239;-70
2023/08/24 05:30:24;;;;;;;3.30;1.33;;;20.60;50.60;;;;;;5068785;28;20191;-75
2023/08/24 05:32:51;;;;;;;5.80;1.67;;;20.60;50.10;;;;;;5064244;28;20292;-69
2023/08/24 05:35:18;;;;;;;4.77;1.40;;;21.10;46.90;;;;;;5069439;28;20180;-74
2023/08/24 05:37:46;;;;;;;5.73;1.57;;;21.20;45.80;;;;;;5071232;28;20539;-73
2023/08/24 05:40:13;;;;;;;2.97;1.20;;;21.90;45.20;;;;;;5070196;28;20222;-73
2023/08/24 05:42:40;;;;;;;3.23;1.37;;;21.40;44.80;;;;;;5069767;28;21167;-72
2023/08/24 05:45:08;;;;;;;2.70;1.33;;;21.70;45.30;;;;;;5069435;28;20187;-70
2023/08/24 05:47:35;;;;;;;2.10;1.33;;;21.80;44.70;;;;;;5065565;28;20191;-68
2023/08/24 05:50:03;;;;;;;4.00;1.40;;;22.00;44.30;;;;;;5069797;28;20179;-70
2023/08/24 05:52:30;;;;;;;3.47;1.40;;;21.60;43.80;;;;;;5070134;28;20284;-67
2023/08/24 05:54:57;;;;;;;4.17;1.37;;;21.30;45.00;;;;;;5068296;28;20328;-69
2023/08/24 05:57:25;;;;;;;2.70;1.30;;;21.30;45.50;;;;;;5068509;28;20221;-65
2023/08/24 05:59:52;;;;;;;1.63;1.07;;;21.60;45.60;;;;;;5069668;28;20194;-67
2023/08/24 06:02:20;;;;;;;2.77;1.30;;;21.30;45.20;;;;;;5070146;28;20657;-73
2023/08/24 06:04:51;;;;;;;3.37;1.20;;;21.20;45.40;;;;;;5069448;28;20178;-67
2023/08/24 06:07:39;;;;;;;3.83;1.47;;;21.50;44.40;;;;;;5051890;28;20653;-67
2023/08/24 06:10:13;;;;;;;2.63;1.10;;;21.50;43.80;;;;;;5071926;28;20192;-70
2023/08/24 06:12:40;;;;;;;4.00;1.60;;;21.80;44.10;;;;;;5067552;28;20292;-70
2023/08/24 06:15:10;;;;;;;2.50;1.60;;;22.00;43.70;;;;;;5070052;28;20207;-74
2023/08/24 06:17:37;;;;;;;4.17;1.53;;;21.60;44.90;;;;;;5069842;28;20799;-70
2023/08/24 06:20:06;;;;;;;4.37;1.40;;;22.10;45.20;;;;;;5071103;28;20192;-71
2023/08/24 06:22:33;;;;;;;3.80;1.57;;;21.30;45.50;;;;;;5070667;28;20179;-75
2023/08/24 06:25:00;;;;;;;4.03;1.40;;;21.50;44.20;;;;;;5071668;28;20171;-69
2023/08/24 06:27:28;;;;;;;4.87;1.57;;;21.30;45.40;;;;;;5067472;28;20188;-71
2023/08/24 06:29:55;;;;;;;2.60;1.20;;;20.40;47.90;;;;;;5071898;28;20191;-73
2023/08/24 06:32:22;;;;;;;2.37;1.40;;;20.30;48.70;;;;;;5067925;28;20262;-67
2023/08/24 06:34:50;;;;;;;5.63;1.60;;;20.00;49.30;;;;;;5070356;28;20215;-67
2023/08/24 06:37:17;;;;;;;4.07;1.43;;;19.50;49.70;;;;;;5069458;28;20215;-70
2023/08/24 06:39:44;;;;;;;3.10;1.47;;;19.00;49.90;;;;;;5067152;28;20244;-67
2023/08/24 06:42:12;;;;;;;1.93;1.10;;;19.30;50.40;;;;;;5070265;28;20323;-71
2023/08/24 06:44:39;;;;;;;5.27;2.00;;;19.00;51.40;;;;;;5070677;28;20175;-72
2023/08/24 06:47:06;;;;;;;6.53;1.83;;;18.70;53.70;;;;;;5071810;28;20333;-69
2023/08/24 06:49:34;;;;;;;5.47;1.80;;;18.40;55.60;;;;;;5066650;28;20218;-72
2023/08/24 06:52:01;;;;;;;4.63;1.50;;;18.20;56.10;;;;;;5071285;28;20260;-68
2023/08/24 06:54:29;;;;;;;4.37;1.77;;;17.90;55.90;;;;;;5067521;28;20207;-71
2023/08/24 06:56:56;;;;;;;6.40;1.70;;;18.00;56.30;;;;;;5068693;28;20179;-69
2023/08/24 06:59:24;;;;;;;3.57;1.60;;;17.90;56.10;;;;;;5075854;28;20635;-66
2023/08/24 07:01:52;;;;;;;5.03;1.40;;;17.80;57.20;;;;;;5073068;28;20261;-70
2023/08/24 07:04:19;;;;;;;7.53;1.70;;;17.60;56.30;;;;;;5070213;28;20187;-65
2023/08/24 07:06:47;;;;;;;4.30;1.50;;;17.50;56.60;;;;;;5069917;28;20175;-67
2023/08/24 07:09:15;;;;;;;3.13;1.70;;;17.40;57.40;;;;;;5068092;28;20182;-67
2023/08/24 07:11:42;;;;;;;5.00;1.30;;;17.30;58.00;;;;;;5069491;28;20191;-67
2023/08/24 07:14:10;;;;;;;7.87;2.43;;;17.30;58.30;;;;;;5064475;28;20279;-67
2023/08/24 07:16:37;;;;;;;5.10;2.00;;;17.20;58.70;;;;;;5070885;28;20180;-66
2023/08/24 07:19:05;;;;;;;3.27;1.70;;;17.10;58.90;;;;;;5070850;28;20191;-66
2023/08/24 07:21:32;;;;;;;2.57;1.60;;;17.00;58.80;;;;;;5069425;28;20187;-66
2023/08/24 07:24:00;;;;;;;5.13;1.67;;;17.00;59.40;;;;;;5071024;28;20186;-68
2023/08/24 07:26:27;;;;;;;3.60;1.90;;;16.80;59.70;;;;;;5069724;28;20198;-67
2023/08/24 07:28:54;;;;;;;5.87;1.77;;;16.80;61.00;;;;;;5069726;28;20183;-68
2023/08/24 07:31:22;;;;;;;6.83;3.20;;;16.70;61.50;;;;;;5070861;28;20654;-67
2023/08/24 07:33:50;;;;;;;9.73;4.20;;;16.60;61.60;;;;;;5066127;28;20275;-66
2023/08/24 07:36:18;;;;;;;6.20;3.10;;;16.50;62.50;;;;;;5073576;28;20190;-66
2023/08/24 07:38:49;;;;;;;9.50;2.93;;;16.40;62.40;;;;;;5069537;28;21868;-67
2023/08/24 07:41:18;;;;;;;3.27;2.07;;;16.30;63.30;;;;;;5068840;28;20187;-66
2023/08/24 07:43:45;;;;;;;5.03;2.13;;;16.30;63.10;;;;;;5069160;28;20687;-66
2023/08/24 07:46:13;;;;;;;10.37;2.13;;;16.30;63.90;;;;;;5070614;28;20193;-67
2023/08/24 07:48:40;;;;;;;5.23;1.90;;;16.20;64.20;;;;;;5072041;28;20277;-67
2023/08/24 07:51:08;;;;;;;5.17;1.90;;;16.20;64.80;;;;;;5073156;28;20188;-66
2023/08/24 07:53:36;;;;;;;5.10;1.50;;;16.10;65.00;;;;;;5074310;28;20270;-66
2023/08/24 07:56:03;;;;;;;6.90;1.90;;;16.00;65.20;;;;;;5074535;28;20517;-68
2023/08/24 07:58:33;;;;;;;4.53;2.17;;;16.00;65.70;;;;;;5070622;28;20198;-66
2023/08/24 08:01:01;;;;;;;6.57;1.77;;;15.90;65.80;;;;;;5071916;28;20190;-68
2023/08/24 08:03:29;;;;;;;4.70;2.00;;;15.80;66.00;;;;;;5072032;28;20194;-67
2023/08/24 08:05:58;;;;;;;9.57;2.20;;;15.80;66.50;;;;;;5072046;28;20186;-66
2023/08/24 08:08:25;;;;;;;5.97;2.10;;;15.80;66.60;;;;;;5072980;28;20231;-68
2023/08/24 08:11:02;;;;;;;4.67;2.23;;;15.80;66.60;;;;;;5070376;28;20228;-66
2023/08/24 08:13:30;;;;;;;5.63;2.00;;;15.70;67.00;;;;;;5070053;28;20645;-67
2023/08/24 08:16:05;;;;;;;6.13;1.73;;;15.70;66.80;;;;;;5069394;28;20187;-67
2023/08/24 08:18:33;;;;;;;11.27;2.10;;;15.70;67.10;;;;;;5070937;28;20187;-67
2023/08/24 08:21:02;;;;;;;5.80;2.30;;;15.70;67.10;;;;;;5073620;28;20194;-67
2023/08/24 08:23:29;;;;;;;6.17;2.03;;;15.70;67.10;;;;;;5074138;28;20288;-67
2023/08/24 08:25:57;;;;;;;6.87;1.73;;;15.60;67.30;;;;;;5072476;28;20185;-67
2023/08/24 08:28:24;;;;;;;9.70;1.90;;;15.60;67.50;;;;;;5073607;28;20511;-68
2023/08/24 08:30:51;;;;;;;3.43;1.57;;;15.60;67.80;;;;;;5073474;28;20178;-68
2023/08/24 08:33:21;;;;;;;5.87;1.70;;;15.60;67.60;;;;;;5072061;28;20707;-68
2023/08/24 08:35:48;;;;;;;5.17;2.13;;;15.50;67.20;;;;;;5070957;28;20820;-65
2023/08/24 08:38:16;;;;;;;5.17;2.07;;;15.50;67.40;;;;;;5073346;28;20653;-70
2023/08/24 08:40:45;;;;;;;6.93;2.00;;;15.50;67.50;;;;;;5078499;28;20650;-72
2023/08/24 08:43:12;;;;;;;4.23;1.90;;;15.40;67.60;;;;;;5074266;28;20191;-72
2023/08/24 08:45:40;;;;;;;5.07;1.70;;;15.50;68.10;;;;;;5070540;28;20664;-75
2023/08/24 08:48:09;;;;;;;9.40;2.07;;;15.30;68.20;;;;;;5072555;28;20183;-74
2023/08/24 08:50:36;;;;;;;3.90;2.17;;;15.30;68.40;;;;;;5078650;28;20184;-70
2023/08/24 08:53:04;;;;;;;5.40;1.93;;;15.30;68.70;;;;;;5073874;28;20261;-74
2023/08/24 08:55:32;;;;;;;4.33;1.67;;;15.20;69.00;;;;;;5075197;28;20187;-72
2023/08/24 08:58:00;;;;;;;4.63;1.93;;;15.20;69.30;;;;;;5071600;28;20184;-73
2023/08/24 09:00:28;;;;;;;5.67;2.17;;;15.20;69.70;;;;;;5075636;28;20180;-73
2023/08/24 09:02:58;;;;;;;7.97;2.03;;;15.20;69.80;;;;;;5076326;28;20176;-74
2023/08/24 09:05:27;;;;;;;9.47;2.30;;;15.20;69.90;;;;;;5075155;28;20184;-75
2023/08/24 09:07:56;;;;;;;5.37;1.83;;;15.10;70.00;;;;;;5078443;28;20183;-72
2023/08/24 09:10:24;;;;;;;5.67;2.40;;;15.10;70.40;;;;;;5068580;28;20182;-75
2023/08/24 09:12:55;;;;;;;6.97;2.20;;;15.00;70.10;;;;;;5067569;28;20232;-72
2023/08/24 09:15:34;;;;;;;4.73;1.93;;;15.00;70.30;;;;;;5070206;28;20183;-73
2023/08/24 09:18:01;;;;;;;6.50;2.40;;;15.00;70.70;;;;;;5074661;28;20211;-70
2023/08/24 09:20:30;;;;;;;6.43;2.30;;;14.90;71.00;;;;;;5075233;28;20183;-72
2023/08/24 09:22:58;;;;;;;11.63;2.10;;;14.90;71.20;;;;;;5072340;28;20190;-70
2023/08/24 09:25:26;;;;;;;4.20;1.90;;;14.90;71.00;;;;;;5072031;28;20198;-72
2023/08/24 09:28:04;;;;;;;3.77;1.93;;;14.80;71.10;;;;;;5069463;28;20175;-66
2023/08/24 09:30:32;;;;;;;4.30;1.83;;;14.80;70.80;;;;;;5072209;28;20175;-71
2023/08/24 09:33:05;;;;;;;5.60;2.43;;;14.80;71.20;;;;;;5072441;28;20228;-71
2023/08/24 09:35:39;;;;;;;5.40;1.90;;;14.80;71.30;;;;;;5071957;28;20175;-74
2023/08/24 09:38:20;;;;;;;4.93;2.40;;;14.80;71.50;;;;;;5067954;28;20702;-71
2023/08/24 09:40:54;;;;;;;3.83;1.80;;;14.70;71.90;;;;;;5070867;28;20187;-74
2023/08/24 09:43:22;;;;;;;4.37;2.00;;;14.80;72.50;;;;;;5078230;28;20276;-72
2023/08/24 09:45:54;;;;;;;7.80;2.27;;;14.80;71.90;;;;;;5079781;28;20187;-73
2023/08/24 09:48:23;;;;;;;6.80;2.33;;;14.70;72.00;;;;;;5076118;28;20206;-72
2023/08/24 09:50:53;;;;;;;9.63;2.50;;;14.70;72.40;;;;;;5071432;28;20222;-70
2023/08/24 09:53:24;;;;;;;6.47;2.60;;;14.70;72.70;;;;;;5073076;28;20214;-68
2023/08/24 09:55:59;;;;;;;11.80;3.07;;;14.70;72.80;;;;;;5068967;28;20525;-71
2023/08/24 09:58:27;;;;;;;7.27;3.20;;;14.60;73.00;;;;;;5072562;28;20211;-72
2023/08/24 10:00:56;;;;;;;9.67;3.00;;;14.50;73.40;;;;;;5075501;28;20187;-67
2023/08/24 10:03:27;;;;;;;12.30;3.67;;;14.50;73.40;;;;;;5071591;28;20598;-71
2023/08/24 10:06:02;;;;;;;9.93;3.20;;;14.40;73.30;;;;;;5073785;28;20186;-67
2023/08/24 10:08:34;;;;;;;8.37;3.23;;;14.40;73.50;;;;;;5070878;28;20691;-69
2023/08/24 10:11:02;;;;;;;7.90;3.20;;;14.40;73.40;;;;;;5072075;28;20555;-69
2023/08/24 10:13:50;;;;;;;8.73;3.27;;;14.30;73.80;;;;;;5069547;28;20220;-70
2023/08/24 10:16:18;;;;;;;11.83;3.37;;;14.30;73.70;;;;;;5072708;28;20237;-71
2023/08/24 10:18:47;;;;;;;6.50;2.93;;;14.20;74.00;;;;;;5072599;28;20637;-67
2023/08/24 10:21:15;;;;;;;5.80;2.90;;;14.10;74.20;;;;;;5072188;28;20850;-74
2023/08/24 10:23:43;;;;;;;15.13;3.60;;;14.10;74.30;;;;;;5070284;28;20188;-72
2023/08/24 10:26:12;;;;;;;7.43;3.80;;;14.10;74.70;;;;;;5070271;28;20179;-72
2023/08/24 10:28:40;;;;;;;6.60;3.30;;;14.00;74.70;;;;;;5071200;28;20240;-68
2023/08/24 10:31:08;;;;;;;9.30;3.47;;;14.00;74.80;;;;;;5070669;28;20180;-66
2023/08/24 10:33:36;;;;;;;6.37;3.57;;;14.00;75.00;;;;;;5069402;28;20360;-70
2023/08/24 10:36:06;;;;;;;6.50;2.90;;;13.90;74.90;;;;;;5072125;28;20586;-71
2023/08/24 10:38:41;;;;;;;8.23;3.40;;;13.80;75.20;;;;;;5070920;28;20192;-70
2023/08/24 10:41:08;;;;;;;9.90;3.03;;;13.80;75.20;;;;;;5069313;28;20266;-69
2023/08/24 10:43:40;;;;;;;9.80;3.20;;;13.80;75.40;;;;;;5070839;28;20668;-73
2023/08/24 10:46:17;;;;;;;5.20;2.90;;;13.70;75.70;;;;;;5070998;28;20237;-75
2023/08/24 10:48:45;;;;;;;6.73;2.93;;;13.70;75.70;;;;;;5069820;28;20189;-68
2023/08/24 10:51:21;;;;;;;7.03;2.97;;;13.70;75.80;;;;;;5070689;28;20193;-73
2023/08/24 10:53:59;;;;;;;7.50;2.73;;;13.70;75.60;;;;;;5071382;28;20685;-72
2023/08/24 10:56:41;;;;;;;11.17;3.67;;;13.70;75.90;;;;;;5065569;28;20244;-69
2023/08/24 10:59:18;;;;;;;6.47;3.50;;;13.70;76.00;;;;;;5070301;28;20179;-70
2023/08/24 11:01:56;;;;;;;6.93;3.50;;;13.60;76.00;;;;;;5071685;28;20225;-73
2023/08/24 11:04:23;;;;;;;6.40;2.80;;;13.60;76.10;;;;;;5071476;28;20591;-71
2023/08/24 11:06:59;;;;;;;6.90;3.10;;;13.50;76.20;;;;;;5070727;28;20207;-75
2023/08/24 11:09:44;;;;;;;12.07;4.57;;;13.50;76.30;;;;;;5066218;28;20699;-66
2023/08/24 11:12:12;;;;;;;11.60;5.07;;;13.50;76.50;;;;;;5070119;28;20927;-67
2023/08/24 11:15:00;;;;;;;9.10;3.50;;;13.60;76.70;;;;;;5066310;28;20480;-70
2023/08/24 11:17:34;;;;;;;8.90;2.93;;;13.40;76.40;;;;;;5062901;28;20171;-71
2023/08/24 11:20:03;;;;;;;8.47;3.53;;;13.40;76.80;;;;;;5071839;28;20187;-67
2023/08/24 11:22:32;;;;;;;6.43;2.73;;;13.40;76.80;;;;;;5071867;28;20182;-72
2023/08/24 11:25:00;;;;;;;4.90;2.60;;;13.30;76.80;;;;;;5071378;28;20199;-68
2023/08/24 11:27:28;;;;;;;6.17;2.70;;;13.40;76.90;;;;;;5068875;28;20233;-76
2023/08/24 11:30:05;;;;;;;8.20;3.30;;;13.30;77.00;;;;;;5071322;28;20182;-71
2023/08/24 11:32:32;;;;;;;5.97;2.30;;;13.30;77.10;;;;;;5069925;28;20253;-74
2023/08/24 11:35:03;;;;;;;4.73;2.33;;;13.30;77.00;;;;;;5068498;28;20828;-71
2023/08/24 11:37:30;;;;;;;7.60;2.93;;;13.30;77.30;;;;;;5069061;28;20550;-70
2023/08/24 11:39:58;;;;;;;7.17;2.50;;;13.30;77.30;;;;;;5070130;28;20254;-69
2023/08/24 11:42:25;;;;;;;5.90;2.80;;;13.30;77.20;;;;;;5069376;28;20640;-71
2023/08/24 11:44:52;;;;;;;5.57;2.67;;;13.30;77.50;;;;;;5069267;28;20190;-66
2023/08/24 11:47:24;;;;;;;8.47;2.77;;;13.40;77.50;;;;;;5067620;28;20660;-66
2023/08/24 11:49:51;;;;;;;8.17;2.67;;;13.30;77.30;;;;;;5068815;28;20590;-71
2023/08/24 11:52:19;;;;;;;8.27;2.73;;;13.30;77.50;;;;;;5070148;28;20602;-66
2023/08/24 11:54:46;;;;;;;7.50;3.10;;;13.30;77.70;;;;;;5071222;28;20208;-68
2023/08/24 11:57:13;;;;;;;7.60;2.87;;;13.30;77.70;;;;;;5070806;28;20217;-70
2023/08/24 11:59:41;;;;;;;5.60;2.60;;;13.30;77.70;;;;;;5070499;28;20552;-67
2023/08/24 12:02:10;;;;;;;9.10;3.00;;;13.30;77.70;;;;;;5068468;28;20194;-74
2023/08/24 12:04:42;;;;;;;6.83;2.57;;;13.20;77.80;;;;;;5070958;28;20202;-66
2023/08/24 12:07:11;;;;;;;9.03;2.43;;;13.20;78.10;;;;;;5070214;28;20199;-70
2023/08/24 12:09:40;;;;;;;9.27;2.80;;;13.20;78.00;;;;;;5071656;28;20667;-64
2023/08/24 12:12:16;;;;;;;10.40;3.13;;;13.20;78.10;;;;;;5068615;28;20184;-72
2023/08/24 12:14:47;;;;;;;11.07;3.80;;;13.10;78.30;;;;;;5071196;28;20656;-73
2023/08/24 12:17:15;;;;;;;10.63;3.80;;;13.10;78.90;;;;;;5070297;28;20569;-66
2023/08/24 12:19:44;;;;;;;8.23;4.03;;;12.90;79.00;;;;;;5064468;28;20265;-67
2023/08/24 12:22:17;;;;;;;11.77;3.70;;;12.90;79.90;;;;;;5068930;28;20211;-66
2023/08/24 12:24:50;;;;;;;8.50;3.43;;;12.90;80.20;;;;;;5071367;28;20210;-68
2023/08/24 12:27:23;;;;;;;7.87;4.13;;;12.80;80.10;;;;;;5070811;28;20222;-66
2023/08/24 12:29:51;;;;;;;9.03;3.77;;;12.80;80.50;;;;;;5062391;28;20569;-69
2023/08/24 12:32:23;;;;;;;8.03;3.80;;;12.80;80.50;;;;;;5070607;28;20227;-66
2023/08/24 12:34:54;;;;;;;7.80;3.93;;;12.70;80.70;;;;;;5071569;28;20198;-67
2023/08/24 12:37:22;;;;;;;8.83;3.80;;;12.80;80.90;;;;;;5074440;28;20254;-67
2023/08/24 12:39:49;;;;;;;9.53;4.30;;;12.70;80.70;;;;;;5074187;28;20197;-74
2023/08/24 12:42:16;;;;;;;8.80;3.70;;;12.70;80.60;;;;;;5074049;28;20191;-72
2023/08/24 12:44:43;;;;;;;5.20;3.73;;;12.60;80.60;;;;;;5074871;28;20186;-72
2023/08/24 12:47:11;;;;;;;8.23;3.57;;;12.60;80.80;;;;;;5074093;28;20183;-66
2023/08/24 12:49:38;;;;;;;6.63;3.33;;;12.60;80.70;;;;;;5074450;28;20187;-66
2023/08/24 12:52:06;;;;;;;5.50;3.10;;;12.50;80.80;;;;;;5073050;28;20175;-66
2023/08/24 12:54:33;;;;;;;7.17;3.40;;;12.50;81.10;;;;;;5074575;28;20194;-68